sensor_id;sensor_type;location;lat;lon;timestamp;P1;durP1;ratioP1;P2;durP2;ratioP2
9759;SDS011;4919;48.792;9.202;2022-11-28T00:01:24;16.37;;;10.63;;
9759;SDS011;4919;48.792;9.202;2022-11-28T00:03:59;17.93;;;11.40;;
9759;SDS011;4919;48.792;9.202;2022-11-28T00:06:26;17.53;;;10.90;;
9759;SDS011;4919;48.792;9.202;2022-11-28T00:08:54;19.20;;;11.13;;
9759;SDS011;4919;48.792;9.202;2022-11-28T00:11:22;19.17;;;11.43;;
9759;SDS011;4919;48.792;9.202;2022-11-28T00:13:50;18.77;;;10.87;;
9759;SDS011;4919;48.792;9.202;2022-11-28T00:16:18;19.70;;;10.93;;
9759;SDS011;4919;48.792;9.202;2022-11-28T00:18:49;18.57;;;10.73;;
9759;SDS011;4919;48.792;9.202;2022-11-28T00:21:17;21.17;;;11.17;;
9759;SDS011;4919;48.792;9.202;2022-11-28T00:23:46;16.27;;;10.80;;
9759;SDS011;4919;48.792;9.202;2022-11-28T00:26:14;18.67;;;10.77;;
9759;SDS011;4919;48.792;9.202;2022-11-28T00:28:47;18.80;;;10.50;;
9759;SDS011;4919;48.792;9.202;2022-11-28T00:31:15;17.03;;;10.63;;
9759;SDS011;4919;48.792;9.202;2022-11-28T00:33:44;17.73;;;10.60;;
9759;SDS011;4919;48.792;9.202;2022-11-28T00:36:11;18.27;;;10.57;;
9759;SDS011;4919;48.792;9.202;2022-11-28T00:38:39;17.70;;;10.93;;
9759;SDS011;4919;48.792;9.202;2022-11-28T00:41:08;18.20;;;10.70;;
9759;SDS011;4919;48.792;9.202;2022-11-28T00:43:37;17.33;;;10.07;;
9759;SDS011;4919;48.792;9.202;2022-11-28T00:46:05;19.40;;;11.20;;
9759;SDS011;4919;48.792;9.202;2022-11-28T00:48:33;18.47;;;10.83;;
9759;SDS011;4919;48.792;9.202;2022-11-28T00:51:04;17.23;;;9.90;;
9759;SDS011;4919;48.792;9.202;2022-11-28T00:53:36;18.10;;;10.93;;
9759;SDS011;4919;48.792;9.202;2022-11-28T00:56:06;18.03;;;11.13;;
9759;SDS011;4919;48.792;9.202;2022-11-28T00:58:34;19.67;;;11.13;;
9759;SDS011;4919;48.792;9.202;2022-11-28T01:01:09;18.50;;;11.50;;
9759;SDS011;4919;48.792;9.202;2022-11-28T01:03:38;19.37;;;11.57;;
9759;SDS011;4919;48.792;9.202;2022-11-28T01:06:05;18.47;;;11.40;;
9759;SDS011;4919;48.792;9.202;2022-11-28T01:08:33;19.97;;;11.57;;
9759;SDS011;4919;48.792;9.202;2022-11-28T01:11:00;17.40;;;11.40;;
9759;SDS011;4919;48.792;9.202;2022-11-28T01:13:28;21.57;;;11.50;;
9759;SDS011;4919;48.792;9.202;2022-11-28T01:15:55;19.37;;;12.17;;
9759;SDS011;4919;48.792;9.202;2022-11-28T01:18:23;19.77;;;11.80;;
9759;SDS011;4919;48.792;9.202;2022-11-28T01:20:50;20.70;;;12.00;;
9759;SDS011;4919;48.792;9.202;2022-11-28T01:23:17;20.90;;;12.57;;
9759;SDS011;4919;48.792;9.202;2022-11-28T01:25:44;23.47;;;12.80;;
9759;SDS011;4919;48.792;9.202;2022-11-28T01:28:11;20.50;;;12.60;;
9759;SDS011;4919;48.792;9.202;2022-11-28T01:30:38;21.83;;;13.43;;
9759;SDS011;4919;48.792;9.202;2022-11-28T01:33:04;20.87;;;13.03;;
9759;SDS011;4919;48.792;9.202;2022-11-28T01:35:31;19.50;;;12.47;;
9759;SDS011;4919;48.792;9.202;2022-11-28T01:37:58;21.90;;;13.17;;
9759;SDS011;4919;48.792;9.202;2022-11-28T01:40:25;21.93;;;13.37;;
9759;SDS011;4919;48.792;9.202;2022-11-28T01:42:52;20.80;;;13.73;;
9759;SDS011;4919;48.792;9.202;2022-11-28T01:45:20;21.67;;;12.83;;
9759;SDS011;4919;48.792;9.202;2022-11-28T01:47:49;21.27;;;12.87;;
9759;SDS011;4919;48.792;9.202;2022-11-28T01:50:19;22.23;;;13.23;;
9759;SDS011;4919;48.792;9.202;2022-11-28T01:52:47;21.27;;;13.33;;
9759;SDS011;4919;48.792;9.202;2022-11-28T01:55:18;19.90;;;12.63;;
9759;SDS011;4919;48.792;9.202;2022-11-28T01:57:47;22.70;;;13.70;;
9759;SDS011;4919;48.792;9.202;2022-11-28T02:00:16;24.00;;;12.83;;
9759;SDS011;4919;48.792;9.202;2022-11-28T02:02:49;23.07;;;13.50;;
9759;SDS011;4919;48.792;9.202;2022-11-28T02:05:20;18.37;;;12.27;;
9759;SDS011;4919;48.792;9.202;2022-11-28T02:07:47;20.97;;;13.47;;
9759;SDS011;4919;48.792;9.202;2022-11-28T02:10:22;22.60;;;14.03;;
9759;SDS011;4919;48.792;9.202;2022-11-28T02:18:35;21.97;;;13.23;;
9759;SDS011;4919;48.792;9.202;2022-11-28T02:44:03;18.37;;;11.80;;
9759;SDS011;4919;48.792;9.202;2022-11-28T02:46:43;18.80;;;12.03;;
9759;SDS011;4919;48.792;9.202;2022-11-28T02:49:22;21.17;;;11.70;;
9759;SDS011;4919;48.792;9.202;2022-11-28T02:51:56;18.63;;;11.73;;
9759;SDS011;4919;48.792;9.202;2022-11-28T02:54:27;18.27;;;11.53;;
9759;SDS011;4919;48.792;9.202;2022-11-28T02:56:56;19.03;;;11.07;;
9759;SDS011;4919;48.792;9.202;2022-11-28T03:02:03;18.13;;;11.43;;
9759;SDS011;4919;48.792;9.202;2022-11-28T03:04:42;17.97;;;11.23;;
9759;SDS011;4919;48.792;9.202;2022-11-28T03:07:28;18.63;;;11.43;;
9759;SDS011;4919;48.792;9.202;2022-11-28T03:10:24;19.20;;;11.17;;
9759;SDS011;4919;48.792;9.202;2022-11-28T03:18:41;18.20;;;10.90;;
9759;SDS011;4919;48.792;9.202;2022-11-28T03:21:27;21.33;;;11.50;;
9759;SDS011;4919;48.792;9.202;2022-11-28T03:24:05;18.53;;;11.30;;
9759;SDS011;4919;48.792;9.202;2022-11-28T03:26:51;18.63;;;11.90;;
9759;SDS011;4919;48.792;9.202;2022-11-28T03:29:38;18.70;;;11.20;;
9759;SDS011;4919;48.792;9.202;2022-11-28T03:32:12;22.70;;;12.07;;
9759;SDS011;4919;48.792;9.202;2022-11-28T03:34:44;19.60;;;12.03;;
9759;SDS011;4919;48.792;9.202;2022-11-28T03:37:15;20.33;;;11.97;;
9759;SDS011;4919;48.792;9.202;2022-11-28T03:39:47;19.50;;;11.93;;
9759;SDS011;4919;48.792;9.202;2022-11-28T03:42:20;18.53;;;11.37;;
9759;SDS011;4919;48.792;9.202;2022-11-28T03:44:57;18.77;;;11.43;;
9759;SDS011;4919;48.792;9.202;2022-11-28T03:47:33;20.20;;;11.47;;
9759;SDS011;4919;48.792;9.202;2022-11-28T03:50:06;18.70;;;11.23;;
9759;SDS011;4919;48.792;9.202;2022-11-28T03:52:42;19.60;;;11.20;;
9759;SDS011;4919;48.792;9.202;2022-11-28T03:55:26;18.50;;;11.40;;
9759;SDS011;4919;48.792;9.202;2022-11-28T04:01:35;20.07;;;11.80;;
9759;SDS011;4919;48.792;9.202;2022-11-28T04:09:25;17.70;;;11.10;;
9759;SDS011;4919;48.792;9.202;2022-11-28T04:12:19;18.67;;;11.57;;
9759;SDS011;4919;48.792;9.202;2022-11-28T04:14:54;18.63;;;11.13;;
9759;SDS011;4919;48.792;9.202;2022-11-28T04:17:36;20.23;;;12.30;;
9759;SDS011;4919;48.792;9.202;2022-11-28T04:23:12;19.63;;;11.73;;
9759;SDS011;4919;48.792;9.202;2022-11-28T04:25:48;19.33;;;11.77;;
9759;SDS011;4919;48.792;9.202;2022-11-28T04:28:19;20.90;;;11.47;;
9759;SDS011;4919;48.792;9.202;2022-11-28T04:30:50;18.97;;;11.23;;
9759;SDS011;4919;48.792;9.202;2022-11-28T04:33:20;20.83;;;12.13;;
9759;SDS011;4919;48.792;9.202;2022-11-28T04:35:50;19.87;;;11.70;;
9759;SDS011;4919;48.792;9.202;2022-11-28T04:38:20;21.07;;;11.37;;
9759;SDS011;4919;48.792;9.202;2022-11-28T04:40:53;24.13;;;12.13;;
9759;SDS011;4919;48.792;9.202;2022-11-28T04:43:37;22.17;;;11.73;;
9759;SDS011;4919;48.792;9.202;2022-11-28T04:46:10;20.93;;;12.13;;
9759;SDS011;4919;48.792;9.202;2022-11-28T04:48:41;22.17;;;13.03;;
9759;SDS011;4919;48.792;9.202;2022-11-28T04:53:49;20.30;;;11.17;;
9759;SDS011;4919;48.792;9.202;2022-11-28T04:56:49;21.83;;;12.17;;
9759;SDS011;4919;48.792;9.202;2022-11-28T04:59:21;22.60;;;12.30;;
9759;SDS011;4919;48.792;9.202;2022-11-28T05:01:51;21.93;;;12.17;;
9759;SDS011;4919;48.792;9.202;2022-11-28T05:04:21;20.80;;;11.80;;
9759;SDS011;4919;48.792;9.202;2022-11-28T05:06:48;26.67;;;12.23;;
9759;SDS011;4919;48.792;9.202;2022-11-28T05:09:15;19.53;;;11.73;;
9759;SDS011;4919;48.792;9.202;2022-11-28T05:11:42;21.07;;;11.87;;
9759;SDS011;4919;48.792;9.202;2022-11-28T05:14:08;20.13;;;11.97;;
9759;SDS011;4919;48.792;9.202;2022-11-28T05:16:35;21.17;;;12.20;;
9759;SDS011;4919;48.792;9.202;2022-11-28T05:19:02;20.77;;;11.37;;
9759;SDS011;4919;48.792;9.202;2022-11-28T05:21:29;22.30;;;12.00;;
9759;SDS011;4919;48.792;9.202;2022-11-28T05:23:56;18.13;;;11.70;;
9759;SDS011;4919;48.792;9.202;2022-11-28T05:26:22;20.83;;;12.00;;
9759;SDS011;4919;48.792;9.202;2022-11-28T05:28:51;18.87;;;11.23;;
9759;SDS011;4919;48.792;9.202;2022-11-28T05:31:19;21.97;;;11.03;;
9759;SDS011;4919;48.792;9.202;2022-11-28T05:33:46;20.17;;;10.87;;
9759;SDS011;4919;48.792;9.202;2022-11-28T05:36:14;20.73;;;11.13;;
9759;SDS011;4919;48.792;9.202;2022-11-28T05:38:41;20.33;;;12.13;;
9759;SDS011;4919;48.792;9.202;2022-11-28T05:41:16;20.30;;;11.10;;
9759;SDS011;4919;48.792;9.202;2022-11-28T05:43:45;20.93;;;11.83;;
9759;SDS011;4919;48.792;9.202;2022-11-28T05:46:11;18.37;;;11.33;;
9759;SDS011;4919;48.792;9.202;2022-11-28T05:48:38;21.10;;;11.57;;
9759;SDS011;4919;48.792;9.202;2022-11-28T05:51:05;21.03;;;11.77;;
9759;SDS011;4919;48.792;9.202;2022-11-28T05:53:33;25.37;;;11.83;;
9759;SDS011;4919;48.792;9.202;2022-11-28T05:56:05;20.17;;;11.77;;
9759;SDS011;4919;48.792;9.202;2022-11-28T05:58:36;20.20;;;11.63;;
9759;SDS011;4919;48.792;9.202;2022-11-28T06:01:16;20.50;;;11.80;;
9759;SDS011;4919;48.792;9.202;2022-11-28T06:03:45;22.17;;;12.47;;
9759;SDS011;4919;48.792;9.202;2022-11-28T06:06:17;20.57;;;12.23;;
9759;SDS011;4919;48.792;9.202;2022-11-28T06:08:46;20.80;;;12.10;;
9759;SDS011;4919;48.792;9.202;2022-11-28T06:11:14;21.23;;;11.43;;
9759;SDS011;4919;48.792;9.202;2022-11-28T06:13:42;21.40;;;12.57;;
9759;SDS011;4919;48.792;9.202;2022-11-28T06:16:11;17.30;;;11.03;;
9759;SDS011;4919;48.792;9.202;2022-11-28T06:18:41;20.60;;;12.37;;
9759;SDS011;4919;48.792;9.202;2022-11-28T06:21:08;20.80;;;11.80;;
9759;SDS011;4919;48.792;9.202;2022-11-28T06:23:36;19.97;;;12.30;;
9759;SDS011;4919;48.792;9.202;2022-11-28T06:26:07;23.70;;;12.83;;
9759;SDS011;4919;48.792;9.202;2022-11-28T06:28:36;21.80;;;12.37;;
9759;SDS011;4919;48.792;9.202;2022-11-28T06:31:03;21.40;;;13.10;;
9759;SDS011;4919;48.792;9.202;2022-11-28T06:33:34;20.90;;;12.80;;
9759;SDS011;4919;48.792;9.202;2022-11-28T06:36:02;21.83;;;12.43;;
9759;SDS011;4919;48.792;9.202;2022-11-28T06:38:30;25.60;;;12.77;;
9759;SDS011;4919;48.792;9.202;2022-11-28T06:40:58;23.37;;;12.93;;
9759;SDS011;4919;48.792;9.202;2022-11-28T06:43:27;24.57;;;13.80;;
9759;SDS011;4919;48.792;9.202;2022-11-28T06:45:55;25.37;;;13.83;;
9759;SDS011;4919;48.792;9.202;2022-11-28T06:48:22;26.83;;;13.80;;
9759;SDS011;4919;48.792;9.202;2022-11-28T06:50:49;25.97;;;14.20;;
9759;SDS011;4919;48.792;9.202;2022-11-28T06:53:16;29.13;;;14.43;;
9759;SDS011;4919;48.792;9.202;2022-11-28T06:55:44;24.40;;;13.67;;
9759;SDS011;4919;48.792;9.202;2022-11-28T06:58:11;23.60;;;13.70;;
9759;SDS011;4919;48.792;9.202;2022-11-28T07:00:38;23.77;;;14.00;;
9759;SDS011;4919;48.792;9.202;2022-11-28T07:03:05;28.00;;;13.70;;
9759;SDS011;4919;48.792;9.202;2022-11-28T07:05:32;27.77;;;13.83;;
9759;SDS011;4919;48.792;9.202;2022-11-28T07:07:59;23.50;;;13.53;;
9759;SDS011;4919;48.792;9.202;2022-11-28T07:10:26;25.30;;;13.73;;
9759;SDS011;4919;48.792;9.202;2022-11-28T07:12:57;25.93;;;13.63;;
9759;SDS011;4919;48.792;9.202;2022-11-28T07:15:30;24.87;;;13.87;;
9759;SDS011;4919;48.792;9.202;2022-11-28T07:17:57;24.73;;;13.63;;
9759;SDS011;4919;48.792;9.202;2022-11-28T07:20:24;26.60;;;14.03;;
9759;SDS011;4919;48.792;9.202;2022-11-28T07:22:51;24.80;;;14.10;;
9759;SDS011;4919;48.792;9.202;2022-11-28T07:25:17;26.53;;;14.87;;
9759;SDS011;4919;48.792;9.202;2022-11-28T07:27:44;23.97;;;13.43;;
9759;SDS011;4919;48.792;9.202;2022-11-28T07:30:11;24.20;;;14.03;;
9759;SDS011;4919;48.792;9.202;2022-11-28T07:32:38;24.70;;;13.97;;
9759;SDS011;4919;48.792;9.202;2022-11-28T07:35:06;23.23;;;13.67;;
9759;SDS011;4919;48.792;9.202;2022-11-28T07:37:34;25.67;;;14.20;;
9759;SDS011;4919;48.792;9.202;2022-11-28T07:40:02;25.07;;;13.67;;
9759;SDS011;4919;48.792;9.202;2022-11-28T07:42:29;26.50;;;15.40;;
9759;SDS011;4919;48.792;9.202;2022-11-28T07:45:02;28.17;;;13.97;;
9759;SDS011;4919;48.792;9.202;2022-11-28T07:47:30;25.67;;;13.33;;
9759;SDS011;4919;48.792;9.202;2022-11-28T07:49:56;26.60;;;13.87;;
9759;SDS011;4919;48.792;9.202;2022-11-28T07:52:23;24.73;;;13.70;;
9759;SDS011;4919;48.792;9.202;2022-11-28T07:54:50;25.70;;;13.60;;
9759;SDS011;4919;48.792;9.202;2022-11-28T07:57:17;25.77;;;14.63;;
9759;SDS011;4919;48.792;9.202;2022-11-28T07:59:44;26.10;;;13.97;;
9759;SDS011;4919;48.792;9.202;2022-11-28T08:02:11;25.97;;;14.33;;
9759;SDS011;4919;48.792;9.202;2022-11-28T08:04:38;26.03;;;13.03;;
9759;SDS011;4919;48.792;9.202;2022-11-28T08:07:13;28.97;;;13.90;;
9759;SDS011;4919;48.792;9.202;2022-11-28T08:09:40;23.63;;;13.43;;
9759;SDS011;4919;48.792;9.202;2022-11-28T08:12:08;25.03;;;14.53;;
9759;SDS011;4919;48.792;9.202;2022-11-28T08:14:34;24.80;;;13.50;;
9759;SDS011;4919;48.792;9.202;2022-11-28T08:17:01;26.20;;;14.40;;
9759;SDS011;4919;48.792;9.202;2022-11-28T08:19:28;24.07;;;13.63;;
9759;SDS011;4919;48.792;9.202;2022-11-28T08:22:00;27.43;;;14.57;;
9759;SDS011;4919;48.792;9.202;2022-11-28T08:24:27;27.20;;;14.20;;
9759;SDS011;4919;48.792;9.202;2022-11-28T08:26:54;27.20;;;14.53;;
9759;SDS011;4919;48.792;9.202;2022-11-28T08:29:20;26.07;;;13.97;;
9759;SDS011;4919;48.792;9.202;2022-11-28T08:31:47;26.80;;;14.80;;
9759;SDS011;4919;48.792;9.202;2022-11-28T08:34:14;27.10;;;14.80;;
9759;SDS011;4919;48.792;9.202;2022-11-28T08:36:41;27.77;;;13.80;;
9759;SDS011;4919;48.792;9.202;2022-11-28T08:39:09;26.70;;;14.77;;
9759;SDS011;4919;48.792;9.202;2022-11-28T08:41:52;28.00;;;15.40;;
9759;SDS011;4919;48.792;9.202;2022-11-28T08:44:22;27.27;;;15.07;;
9759;SDS011;4919;48.792;9.202;2022-11-28T08:46:49;24.23;;;14.60;;
9759;SDS011;4919;48.792;9.202;2022-11-28T08:49:16;26.30;;;14.47;;
9759;SDS011;4919;48.792;9.202;2022-11-28T08:51:43;27.03;;;14.00;;
9759;SDS011;4919;48.792;9.202;2022-11-28T08:54:10;24.67;;;14.30;;
9759;SDS011;4919;48.792;9.202;2022-11-28T08:56:37;26.77;;;14.23;;
9759;SDS011;4919;48.792;9.202;2022-11-28T08:59:04;26.30;;;14.67;;
9759;SDS011;4919;48.792;9.202;2022-11-28T09:01:32;23.97;;;14.00;;
9759;SDS011;4919;48.792;9.202;2022-11-28T09:03:59;27.00;;;14.13;;
9759;SDS011;4919;48.792;9.202;2022-11-28T09:06:26;23.93;;;14.57;;
9759;SDS011;4919;48.792;9.202;2022-11-28T09:08:53;28.03;;;14.97;;
9759;SDS011;4919;48.792;9.202;2022-11-28T09:11:21;26.70;;;14.87;;
9759;SDS011;4919;48.792;9.202;2022-11-28T09:13:48;24.80;;;14.30;;
9759;SDS011;4919;48.792;9.202;2022-11-28T09:16:15;26.87;;;13.63;;
9759;SDS011;4919;48.792;9.202;2022-11-28T09:18:42;27.60;;;14.57;;
9759;SDS011;4919;48.792;9.202;2022-11-28T09:21:10;28.17;;;15.47;;
9759;SDS011;4919;48.792;9.202;2022-11-28T09:23:39;27.27;;;14.93;;
9759;SDS011;4919;48.792;9.202;2022-11-28T09:26:11;27.23;;;14.23;;
9759;SDS011;4919;48.792;9.202;2022-11-28T09:28:40;26.03;;;14.70;;
9759;SDS011;4919;48.792;9.202;2022-11-28T09:31:07;24.63;;;13.27;;
9759;SDS011;4919;48.792;9.202;2022-11-28T09:33:34;25.93;;;14.10;;
9759;SDS011;4919;48.792;9.202;2022-11-28T09:36:05;26.23;;;14.00;;
9759;SDS011;4919;48.792;9.202;2022-11-28T09:38:37;30.33;;;14.60;;
9759;SDS011;4919;48.792;9.202;2022-11-28T09:41:17;26.80;;;14.13;;
9759;SDS011;4919;48.792;9.202;2022-11-28T09:43:56;26.60;;;13.67;;
9759;SDS011;4919;48.792;9.202;2022-11-28T09:46:32;24.83;;;14.87;;
9759;SDS011;4919;48.792;9.202;2022-11-28T09:49:03;28.53;;;14.67;;
9759;SDS011;4919;48.792;9.202;2022-11-28T09:51:48;28.83;;;14.43;;
9759;SDS011;4919;48.792;9.202;2022-11-28T09:54:37;27.00;;;15.17;;
9759;SDS011;4919;48.792;9.202;2022-11-28T09:57:10;29.60;;;15.57;;
9759;SDS011;4919;48.792;9.202;2022-11-28T09:59:43;28.90;;;14.67;;
9759;SDS011;4919;48.792;9.202;2022-11-28T10:12:49;29.77;;;16.03;;
9759;SDS011;4919;48.792;9.202;2022-11-28T10:18:48;28.57;;;15.83;;
9759;SDS011;4919;48.792;9.202;2022-11-28T10:21:20;29.70;;;16.37;;
9759;SDS011;4919;48.792;9.202;2022-11-28T10:23:53;28.30;;;15.63;;
9759;SDS011;4919;48.792;9.202;2022-11-28T10:26:37;28.80;;;15.40;;
9759;SDS011;4919;48.792;9.202;2022-11-28T10:31:53;29.17;;;15.83;;
9759;SDS011;4919;48.792;9.202;2022-11-28T10:37:25;25.63;;;14.20;;
9759;SDS011;4919;48.792;9.202;2022-11-28T10:40:10;29.57;;;15.17;;
9759;SDS011;4919;48.792;9.202;2022-11-28T10:43:10;28.30;;;15.50;;
9759;SDS011;4919;48.792;9.202;2022-11-28T10:56:24;28.03;;;14.50;;
9759;SDS011;4919;48.792;9.202;2022-11-28T11:01:46;24.03;;;13.83;;
9759;SDS011;4919;48.792;9.202;2022-11-28T11:04:21;27.37;;;14.87;;
9759;SDS011;4919;48.792;9.202;2022-11-28T11:07:32;25.17;;;14.80;;
9759;SDS011;4919;48.792;9.202;2022-11-28T11:09:56;26.83;;;14.57;;
9759;SDS011;4919;48.792;9.202;2022-11-28T11:12:31;29.87;;;14.47;;
9759;SDS011;4919;48.792;9.202;2022-11-28T11:15:12;30.70;;;15.03;;
9759;SDS011;4919;48.792;9.202;2022-11-28T11:17:50;27.50;;;14.30;;
9759;SDS011;4919;48.792;9.202;2022-11-28T11:20:31;30.03;;;14.53;;
9759;SDS011;4919;48.792;9.202;2022-11-28T11:23:18;25.57;;;13.47;;
9759;SDS011;4919;48.792;9.202;2022-11-28T11:25:55;26.47;;;14.43;;
9759;SDS011;4919;48.792;9.202;2022-11-28T11:28:37;25.57;;;14.30;;
9759;SDS011;4919;48.792;9.202;2022-11-28T11:31:25;28.57;;;14.07;;
9759;SDS011;4919;48.792;9.202;2022-11-28T11:34:12;25.27;;;13.47;;
9759;SDS011;4919;48.792;9.202;2022-11-28T11:36:42;27.83;;;14.03;;
9759;SDS011;4919;48.792;9.202;2022-11-28T11:41:43;25.70;;;13.13;;
9759;SDS011;4919;48.792;9.202;2022-11-28T11:46:57;23.50;;;12.87;;
9759;SDS011;4919;48.792;9.202;2022-11-28T11:57:22;23.50;;;13.20;;
9759;SDS011;4919;48.792;9.202;2022-11-28T12:00:10;23.07;;;13.53;;
9759;SDS011;4919;48.792;9.202;2022-11-28T12:05:38;22.30;;;13.00;;
9759;SDS011;4919;48.792;9.202;2022-11-28T12:08:42;24.00;;;13.00;;
9759;SDS011;4919;48.792;9.202;2022-11-28T12:13:57;22.87;;;12.57;;
9759;SDS011;4919;48.792;9.202;2022-11-28T12:16:39;20.13;;;12.03;;
9759;SDS011;4919;48.792;9.202;2022-11-28T12:25:47;19.07;;;11.67;;
9759;SDS011;4919;48.792;9.202;2022-11-28T12:34:28;18.17;;;11.57;;
9759;SDS011;4919;48.792;9.202;2022-11-28T12:37:17;22.27;;;12.53;;
9759;SDS011;4919;48.792;9.202;2022-11-28T12:51:57;22.73;;;11.93;;
9759;SDS011;4919;48.792;9.202;2022-11-28T13:00:01;19.37;;;10.73;;
9759;SDS011;4919;48.792;9.202;2022-11-28T13:05:36;19.73;;;11.30;;
9759;SDS011;4919;48.792;9.202;2022-11-28T13:13:43;20.13;;;12.30;;
9759;SDS011;4919;48.792;9.202;2022-11-28T13:16:39;22.47;;;13.17;;
9759;SDS011;4919;48.792;9.202;2022-11-28T13:28:09;26.43;;;14.83;;
9759;SDS011;4919;48.792;9.202;2022-11-28T13:30:57;23.00;;;13.97;;
9759;SDS011;4919;48.792;9.202;2022-11-28T13:39:47;29.57;;;15.43;;
9759;SDS011;4919;48.792;9.202;2022-11-28T13:45:34;24.93;;;15.37;;
9759;SDS011;4919;48.792;9.202;2022-11-28T13:51:20;29.10;;;15.60;;
9759;SDS011;4919;48.792;9.202;2022-11-28T14:00:04;27.80;;;15.07;;
9759;SDS011;4919;48.792;9.202;2022-11-28T14:02:44;28.57;;;15.50;;
9759;SDS011;4919;48.792;9.202;2022-11-28T14:05:22;27.93;;;15.87;;
9759;SDS011;4919;48.792;9.202;2022-11-28T14:07:52;28.57;;;15.77;;
9759;SDS011;4919;48.792;9.202;2022-11-28T14:10:27;27.20;;;15.50;;
9759;SDS011;4919;48.792;9.202;2022-11-28T14:13:25;27.20;;;15.57;;
9759;SDS011;4919;48.792;9.202;2022-11-28T14:22:06;24.83;;;15.10;;
9759;SDS011;4919;48.792;9.202;2022-11-28T14:24:55;25.63;;;14.77;;
9759;SDS011;4919;48.792;9.202;2022-11-28T14:27:30;28.73;;;15.93;;
9759;SDS011;4919;48.792;9.202;2022-11-28T14:30:00;24.80;;;14.63;;
9759;SDS011;4919;48.792;9.202;2022-11-28T14:35:16;26.87;;;15.07;;
9759;SDS011;4919;48.792;9.202;2022-11-28T14:43:26;31.30;;;16.43;;
9759;SDS011;4919;48.792;9.202;2022-11-28T14:49:12;28.87;;;15.43;;
9759;SDS011;4919;48.792;9.202;2022-11-28T14:54:21;26.03;;;16.47;;
9759;SDS011;4919;48.792;9.202;2022-11-28T14:56:57;30.10;;;15.93;;
9759;SDS011;4919;48.792;9.202;2022-11-28T14:59:29;26.53;;;16.10;;
9759;SDS011;4919;48.792;9.202;2022-11-28T15:13:06;29.50;;;16.83;;
9759;SDS011;4919;48.792;9.202;2022-11-28T15:15:50;30.00;;;17.37;;
9759;SDS011;4919;48.792;9.202;2022-11-28T15:18:18;29.20;;;17.00;;
9759;SDS011;4919;48.792;9.202;2022-11-28T15:20:52;30.20;;;17.20;;
9759;SDS011;4919;48.792;9.202;2022-11-28T15:23:36;31.80;;;17.03;;
9759;SDS011;4919;48.792;9.202;2022-11-28T15:26:14;32.73;;;16.93;;
9759;SDS011;4919;48.792;9.202;2022-11-28T15:31:35;28.40;;;17.20;;
9759;SDS011;4919;48.792;9.202;2022-11-28T15:34:06;32.07;;;17.07;;
9759;SDS011;4919;48.792;9.202;2022-11-28T15:36:34;31.83;;;18.30;;
9759;SDS011;4919;48.792;9.202;2022-11-28T15:39:10;31.97;;;17.17;;
9759;SDS011;4919;48.792;9.202;2022-11-28T15:42:02;32.87;;;18.30;;
9759;SDS011;4919;48.792;9.202;2022-11-28T15:44:31;29.83;;;16.97;;
9759;SDS011;4919;48.792;9.202;2022-11-28T15:46:58;31.70;;;18.17;;
9759;SDS011;4919;48.792;9.202;2022-11-28T15:49:26;31.13;;;16.87;;
9759;SDS011;4919;48.792;9.202;2022-11-28T15:51:59;29.27;;;17.03;;
9759;SDS011;4919;48.792;9.202;2022-11-28T15:56:58;32.67;;;17.57;;
9759;SDS011;4919;48.792;9.202;2022-11-28T15:59:26;33.33;;;18.00;;
9759;SDS011;4919;48.792;9.202;2022-11-28T16:01:54;33.93;;;18.10;;
9759;SDS011;4919;48.792;9.202;2022-11-28T16:04:25;30.10;;;17.77;;
9759;SDS011;4919;48.792;9.202;2022-11-28T16:06:55;30.40;;;18.00;;
9759;SDS011;4919;48.792;9.202;2022-11-28T16:09:26;32.57;;;17.20;;
9759;SDS011;4919;48.792;9.202;2022-11-28T16:11:56;34.80;;;19.03;;
9759;SDS011;4919;48.792;9.202;2022-11-28T16:14:30;35.30;;;20.67;;
9759;SDS011;4919;48.792;9.202;2022-11-28T16:17:01;35.23;;;19.77;;
9759;SDS011;4919;48.792;9.202;2022-11-28T16:19:36;33.80;;;20.30;;
9759;SDS011;4919;48.792;9.202;2022-11-28T16:22:04;32.10;;;18.67;;
9759;SDS011;4919;48.792;9.202;2022-11-28T16:24:53;35.87;;;19.53;;
9759;SDS011;4919;48.792;9.202;2022-11-28T16:29:54;34.53;;;19.27;;
9759;SDS011;4919;48.792;9.202;2022-11-28T16:32:22;37.73;;;19.57;;
9759;SDS011;4919;48.792;9.202;2022-11-28T16:34:57;34.70;;;19.07;;
9759;SDS011;4919;48.792;9.202;2022-11-28T16:37:28;30.87;;;18.70;;
9759;SDS011;4919;48.792;9.202;2022-11-28T16:40:04;33.47;;;18.43;;
9759;SDS011;4919;48.792;9.202;2022-11-28T16:42:38;34.90;;;18.77;;
9759;SDS011;4919;48.792;9.202;2022-11-28T16:47:51;34.30;;;18.40;;
9759;SDS011;4919;48.792;9.202;2022-11-28T16:50:34;34.30;;;19.07;;
9759;SDS011;4919;48.792;9.202;2022-11-28T16:53:01;37.07;;;19.57;;
9759;SDS011;4919;48.792;9.202;2022-11-28T17:00:32;38.23;;;20.37;;
9759;SDS011;4919;48.792;9.202;2022-11-28T17:03:00;38.17;;;20.80;;
9759;SDS011;4919;48.792;9.202;2022-11-28T17:05:28;36.33;;;19.27;;
9759;SDS011;4919;48.792;9.202;2022-11-28T17:07:55;38.03;;;20.97;;
9759;SDS011;4919;48.792;9.202;2022-11-28T17:10:23;36.30;;;20.00;;
9759;SDS011;4919;48.792;9.202;2022-11-28T17:12:53;38.53;;;20.30;;
9759;SDS011;4919;48.792;9.202;2022-11-28T17:15:20;36.00;;;20.70;;
9759;SDS011;4919;48.792;9.202;2022-11-28T17:17:48;41.23;;;20.47;;
9759;SDS011;4919;48.792;9.202;2022-11-28T17:20:15;37.30;;;20.00;;
9759;SDS011;4919;48.792;9.202;2022-11-28T17:22:44;36.77;;;20.13;;
9759;SDS011;4919;48.792;9.202;2022-11-28T17:25:16;38.97;;;20.80;;
9759;SDS011;4919;48.792;9.202;2022-11-28T17:27:45;43.23;;;22.30;;
9759;SDS011;4919;48.792;9.202;2022-11-28T17:30:17;37.13;;;20.40;;
9759;SDS011;4919;48.792;9.202;2022-11-28T17:32:44;42.07;;;22.50;;
9759;SDS011;4919;48.792;9.202;2022-11-28T17:35:19;44.97;;;23.27;;
9759;SDS011;4919;48.792;9.202;2022-11-28T17:37:48;42.90;;;22.77;;
9759;SDS011;4919;48.792;9.202;2022-11-28T17:40:15;38.40;;;20.97;;
9759;SDS011;4919;48.792;9.202;2022-11-28T17:43:02;43.17;;;22.47;;
9759;SDS011;4919;48.792;9.202;2022-11-28T17:45:30;38.57;;;21.30;;
9759;SDS011;4919;48.792;9.202;2022-11-28T17:47:59;49.43;;;23.23;;
9759;SDS011;4919;48.792;9.202;2022-11-28T17:50:26;43.67;;;22.83;;
9759;SDS011;4919;48.792;9.202;2022-11-28T17:52:54;46.33;;;23.63;;
9759;SDS011;4919;48.792;9.202;2022-11-28T17:55:20;45.50;;;23.03;;
9759;SDS011;4919;48.792;9.202;2022-11-28T17:57:47;44.70;;;23.00;;
9759;SDS011;4919;48.792;9.202;2022-11-28T18:00:14;48.37;;;24.07;;
9759;SDS011;4919;48.792;9.202;2022-11-28T18:02:43;43.53;;;23.20;;
9759;SDS011;4919;48.792;9.202;2022-11-28T18:05:10;48.83;;;24.93;;
9759;SDS011;4919;48.792;9.202;2022-11-28T18:07:38;44.17;;;23.67;;
9759;SDS011;4919;48.792;9.202;2022-11-28T18:10:09;48.40;;;23.87;;
9759;SDS011;4919;48.792;9.202;2022-11-28T18:12:37;44.83;;;23.33;;
9759;SDS011;4919;48.792;9.202;2022-11-28T18:15:05;45.40;;;23.03;;
9759;SDS011;4919;48.792;9.202;2022-11-28T18:17:32;50.03;;;24.73;;
9759;SDS011;4919;48.792;9.202;2022-11-28T18:20:00;49.50;;;25.23;;
9759;SDS011;4919;48.792;9.202;2022-11-28T18:22:27;50.80;;;25.67;;
9759;SDS011;4919;48.792;9.202;2022-11-28T18:24:54;51.90;;;26.13;;
9759;SDS011;4919;48.792;9.202;2022-11-28T18:27:21;55.40;;;26.60;;
9759;SDS011;4919;48.792;9.202;2022-11-28T18:29:47;50.20;;;27.77;;
9759;SDS011;4919;48.792;9.202;2022-11-28T18:32:15;48.07;;;25.97;;
9759;SDS011;4919;48.792;9.202;2022-11-28T18:34:42;61.43;;;32.37;;
9759;SDS011;4919;48.792;9.202;2022-11-28T18:37:08;59.50;;;32.37;;
9759;SDS011;4919;48.792;9.202;2022-11-28T18:39:36;59.13;;;29.50;;
9759;SDS011;4919;48.792;9.202;2022-11-28T18:42:03;51.97;;;27.70;;
9759;SDS011;4919;48.792;9.202;2022-11-28T18:44:30;51.97;;;26.97;;
9759;SDS011;4919;48.792;9.202;2022-11-28T18:46:57;54.00;;;28.20;;
9759;SDS011;4919;48.792;9.202;2022-11-28T18:49:25;69.90;;;34.83;;
9759;SDS011;4919;48.792;9.202;2022-11-28T18:51:53;57.97;;;30.83;;